sensor_id;sensor_type;location;lat;lon;timestamp;pressure;altitude;pressure_sealevel;temperature;humidity
51053;BME280;37093;37.716;-122.060;2022-07-01T00:01:47;100044.84;;;25.15;27.92
51053;BME280;37093;37.716;-122.060;2022-07-01T00:04:17;100043.03;;;25.47;27.96
51053;BME280;37093;37.716;-122.060;2022-07-01T00:06:45;100045.45;;;25.18;28.07
51053;BME280;37093;37.716;-122.060;2022-07-01T00:09:13;100043.58;;;24.95;28.45
51053;BME280;37093;37.716;-122.060;2022-07-01T00:11:41;100040.43;;;24.62;29.17
51053;BME280;37093;37.716;-122.060;2022-07-01T00:14:11;100041.12;;;24.73;28.93
51053;BME280;37093;37.716;-122.060;2022-07-01T00:16:39;100039.39;;;24.20;29.86
51053;BME280;37093;37.716;-122.060;2022-07-01T00:19:08;100040.08;;;24.40;29.26
51053;BME280;37093;37.716;-122.060;2022-07-01T00:21:36;100038.73;;;23.96;29.68
51053;BME280;37093;37.716;-122.060;2022-07-01T00:24:05;100035.05;;;24.49;29.24
51053;BME280;37093;37.716;-122.060;2022-07-01T00:26:34;100037.55;;;24.18;29.93
51053;BME280;37093;37.716;-122.060;2022-07-01T00:29:02;100037.22;;;24.20;29.92
51053;BME280;37093;37.716;-122.060;2022-07-01T00:31:31;100034.63;;;23.91;30.34
51053;BME280;37093;37.716;-122.060;2022-07-01T00:33:59;100033.78;;;23.37;30.90
51053;BME280;37093;37.716;-122.060;2022-07-01T00:36:27;100027.69;;;23.12;31.70
51053;BME280;37093;37.716;-122.060;2022-07-01T00:38:56;100027.87;;;23.76;30.50
51053;BME280;37093;37.716;-122.060;2022-07-01T00:41:24;100029.87;;;23.81;30.88
51053;BME280;37093;37.716;-122.060;2022-07-01T00:43:53;100026.90;;;23.57;31.09
51053;BME280;37093;37.716;-122.060;2022-07-01T00:46:21;100024.30;;;23.25;31.89
51053;BME280;37093;37.716;-122.060;2022-07-01T00:48:50;100027.11;;;23.53;31.93
51053;BME280;37093;37.716;-122.060;2022-07-01T00:51:19;100025.07;;;23.11;31.50
51053;BME280;37093;37.716;-122.060;2022-07-01T00:53:48;100024.34;;;23.47;31.97
51053;BME280;37093;37.716;-122.060;2022-07-01T00:56:16;100016.97;;;23.42;31.44
51053;BME280;37093;37.716;-122.060;2022-07-01T00:58:45;100024.58;;;22.98;31.67
51053;BME280;37093;37.716;-122.060;2022-07-01T01:01:14;100021.46;;;22.60;32.64
51053;BME280;37093;37.716;-122.060;2022-07-01T01:03:42;100019.33;;;23.21;31.89
51053;BME280;37093;37.716;-122.060;2022-07-01T01:06:11;100019.56;;;22.96;32.02
51053;BME280;37093;37.716;-122.060;2022-07-01T01:08:40;100017.98;;;23.02;32.18
51053;BME280;37093;37.716;-122.060;2022-07-01T01:11:09;100021.36;;;23.30;31.96
51053;BME280;37093;37.716;-122.060;2022-07-01T01:13:38;100018.34;;;23.29;32.16
51053;BME280;37093;37.716;-122.060;2022-07-01T01:16:17;100017.11;;;22.46;32.22
51053;BME280;37093;37.716;-122.060;2022-07-01T01:18:46;100015.78;;;23.07;32.21
51053;BME280;37093;37.716;-122.060;2022-07-01T01:21:14;100013.15;;;23.16;31.92
51053;BME280;37093;37.716;-122.060;2022-07-01T01:23:43;100010.70;;;22.93;32.22
51053;BME280;37093;37.716;-122.060;2022-07-01T01:26:20;100011.80;;;23.05;32.25
51053;BME280;37093;37.716;-122.060;2022-07-01T01:28:51;100013.39;;;22.82;32.33
51053;BME280;37093;37.716;-122.060;2022-07-01T01:31:29;100010.33;;;23.21;32.31
51053;BME280;37093;37.716;-122.060;2022-07-01T01:33:57;100016.59;;;22.98;32.25
51053;BME280;37093;37.716;-122.060;2022-07-01T01:36:26;100014.49;;;23.29;31.92
51053;BME280;37093;37.716;-122.060;2022-07-01T01:38:55;100013.42;;;22.97;31.98
51053;BME280;37093;37.716;-122.060;2022-07-01T01:41:23;100015.24;;;23.19;31.98
51053;BME280;37093;37.716;-122.060;2022-07-01T01:43:52;100015.83;;;23.18;31.86
51053;BME280;37093;37.716;-122.060;2022-07-01T01:46:20;100014.27;;;22.96;32.47
51053;BME280;37093;37.716;-122.060;2022-07-01T01:48:49;100007.96;;;22.43;33.08
51053;BME280;37093;37.716;-122.060;2022-07-01T01:51:18;100016.22;;;22.60;32.71
51053;BME280;37093;37.716;-122.060;2022-07-01T01:53:46;100013.40;;;22.67;33.01
51053;BME280;37093;37.716;-122.060;2022-07-01T01:56:15;100013.53;;;22.51;33.38
51053;BME280;37093;37.716;-122.060;2022-07-01T01:58:43;100013.65;;;22.35;33.57
51053;BME280;37093;37.716;-122.060;2022-07-01T02:01:13;100020.92;;;22.00;33.71
51053;BME280;37093;37.716;-122.060;2022-07-01T02:03:42;100015.81;;;21.86;34.65
51053;BME280;37093;37.716;-122.060;2022-07-01T02:06:16;100019.01;;;21.87;33.73
51053;BME280;37093;37.716;-122.060;2022-07-01T02:08:45;100013.40;;;22.28;33.90
51053;BME280;37093;37.716;-122.060;2022-07-01T02:11:13;100015.44;;;22.20;33.80
51053;BME280;37093;37.716;-122.060;2022-07-01T02:13:42;100014.38;;;21.78;33.95
51053;BME280;37093;37.716;-122.060;2022-07-01T02:16:10;100013.56;;;22.03;33.72
51053;BME280;37093;37.716;-122.060;2022-07-01T02:18:39;100016.80;;;22.24;33.22
51053;BME280;37093;37.716;-122.060;2022-07-01T02:21:08;100017.29;;;22.35;33.09
51053;BME280;37093;37.716;-122.060;2022-07-01T02:23:36;100018.85;;;22.38;32.95
51053;BME280;37093;37.716;-122.060;2022-07-01T02:26:04;100017.72;;;22.60;33.18
51053;BME280;37093;37.716;-122.060;2022-07-01T02:28:32;100019.95;;;22.28;33.20
51053;BME280;37093;37.716;-122.060;2022-07-01T02:31:01;100019.57;;;22.47;33.48
51053;BME280;37093;37.716;-122.060;2022-07-01T02:33:29;100026.02;;;22.51;33.71
51053;BME280;37093;37.716;-122.060;2022-07-01T02:35:58;100025.13;;;22.05;33.41
51053;BME280;37093;37.716;-122.060;2022-07-01T02:38:26;100020.07;;;22.24;33.03
51053;BME280;37093;37.716;-122.060;2022-07-01T02:40:55;100021.97;;;22.25;33.13
51053;BME280;37093;37.716;-122.060;2022-07-01T02:43:24;100023.25;;;22.15;33.28
51053;BME280;37093;37.716;-122.060;2022-07-01T02:45:52;100023.53;;;22.09;33.19
51053;BME280;37093;37.716;-122.060;2022-07-01T02:48:20;100021.26;;;22.33;33.61
51053;BME280;37093;37.716;-122.060;2022-07-01T02:50:49;100021.54;;;22.32;33.71
51053;BME280;37093;37.716;-122.060;2022-07-01T02:53:17;100020.76;;;22.23;33.71
51053;BME280;37093;37.716;-122.060;2022-07-01T02:55:46;100020.95;;;22.20;33.71
51053;BME280;37093;37.716;-122.060;2022-07-01T02:58:15;100021.04;;;22.17;33.95
51053;BME280;37093;37.716;-122.060;2022-07-01T03:00:49;100018.16;;;22.07;33.72
51053;BME280;37093;37.716;-122.060;2022-07-01T03:03:23;100019.01;;;22.30;33.77
51053;BME280;37093;37.716;-122.060;2022-07-01T03:05:51;100019.37;;;21.99;33.72
51053;BME280;37093;37.716;-122.060;2022-07-01T03:08:34;100019.59;;;22.23;33.57
51053;BME280;37093;37.716;-122.060;2022-07-01T03:11:02;100023.30;;;21.86;33.95
51053;BME280;37093;37.716;-122.060;2022-07-01T03:13:31;100020.85;;;21.87;34.59
51053;BME280;37093;37.716;-122.060;2022-07-01T03:15:59;100017.24;;;21.89;34.31
51053;BME280;37093;37.716;-122.060;2022-07-01T03:18:29;100017.49;;;22.04;34.75
51053;BME280;37093;37.716;-122.060;2022-07-01T03:20:57;100019.20;;;22.07;34.41
51053;BME280;37093;37.716;-122.060;2022-07-01T03:23:26;100028.23;;;21.34;35.17
51053;BME280;37093;37.716;-122.060;2022-07-01T03:25:54;100026.72;;;21.47;34.65
51053;BME280;37093;37.716;-122.060;2022-07-01T03:28:23;100027.08;;;21.72;34.60
51053;BME280;37093;37.716;-122.060;2022-07-01T03:30:51;100030.74;;;21.59;34.25
51053;BME280;37093;37.716;-122.060;2022-07-01T03:33:20;100033.57;;;21.55;34.40
51053;BME280;37093;37.716;-122.060;2022-07-01T03:35:48;100033.77;;;21.64;34.65
51053;BME280;37093;37.716;-122.060;2022-07-01T03:38:17;100030.00;;;21.76;34.79
51053;BME280;37093;37.716;-122.060;2022-07-01T03:40:45;100033.13;;;21.47;34.79
51053;BME280;37093;37.716;-122.060;2022-07-01T03:43:13;100033.49;;;21.24;35.36
51053;BME280;37093;37.716;-122.060;2022-07-01T03:45:42;100033.44;;;21.26;35.17
51053;BME280;37093;37.716;-122.060;2022-07-01T03:48:10;100032.50;;;21.26;35.10
51053;BME280;37093;37.716;-122.060;2022-07-01T03:50:38;100034.63;;;21.29;35.03
51053;BME280;37093;37.716;-122.060;2022-07-01T03:53:07;100035.01;;;21.16;35.51
51053;BME280;37093;37.716;-122.060;2022-07-01T03:55:36;100037.03;;;21.16;35.45
51053;BME280;37093;37.716;-122.060;2022-07-01T03:58:05;100038.82;;;21.32;35.63
51053;BME280;37093;37.716;-122.060;2022-07-01T04:00:35;100038.59;;;21.17;36.00
51053;BME280;37093;37.716;-122.060;2022-07-01T04:03:04;100042.88;;;20.82;36.20
51053;BME280;37093;37.716;-122.060;2022-07-01T04:05:35;100041.65;;;20.68;37.11
51053;BME280;37093;37.716;-122.060;2022-07-01T04:08:06;100044.36;;;20.83;36.61
51053;BME280;37093;37.716;-122.060;2022-07-01T04:10:35;100044.51;;;20.41;37.29
51053;BME280;37093;37.716;-122.060;2022-07-01T04:13:05;100048.60;;;20.52;37.50
51053;BME280;37093;37.716;-122.060;2022-07-01T04:15:33;100048.23;;;19.91;37.99
51053;BME280;37093;37.716;-122.060;2022-07-01T04:18:02;100049.32;;;20.17;37.74
51053;BME280;37093;37.716;-122.060;2022-07-01T04:20:37;100052.85;;;20.05;38.15
51053;BME280;37093;37.716;-122.060;2022-07-01T04:23:06;100046.68;;;20.26;38.06
51053;BME280;37093;37.716;-122.060;2022-07-01T04:25:35;100044.77;;;20.15;37.77
51053;BME280;37093;37.716;-122.060;2022-07-01T04:28:04;100042.74;;;20.35;38.19
51053;BME280;37093;37.716;-122.060;2022-07-01T04:30:31;100041.43;;;20.34;37.46
51053;BME280;37093;37.716;-122.060;2022-07-01T04:33:00;100040.32;;;20.58;36.96
51053;BME280;37093;37.716;-122.060;2022-07-01T04:35:28;100038.02;;;20.60;36.72
51053;BME280;37093;37.716;-122.060;2022-07-01T04:37:57;100037.69;;;20.55;36.33
51053;BME280;37093;37.716;-122.060;2022-07-01T04:40:25;100041.51;;;20.74;36.48
51053;BME280;37093;37.716;-122.060;2022-07-01T04:42:54;100046.48;;;20.76;36.27
51053;BME280;37093;37.716;-122.060;2022-07-01T04:45:22;100045.97;;;20.69;37.28
51053;BME280;37093;37.716;-122.060;2022-07-01T04:47:51;100043.46;;;20.16;38.48
51053;BME280;37093;37.716;-122.060;2022-07-01T04:50:19;100047.65;;;20.08;37.99
51053;BME280;37093;37.716;-122.060;2022-07-01T04:52:48;100055.19;;;19.54;38.79
51053;BME280;37093;37.716;-122.060;2022-07-01T04:55:17;100060.91;;;20.04;38.69
51053;BME280;37093;37.716;-122.060;2022-07-01T04:57:45;100054.35;;;19.72;38.30
51053;BME280;37093;37.716;-122.060;2022-07-01T05:00:15;100057.16;;;19.81;38.30
51053;BME280;37093;37.716;-122.060;2022-07-01T05:02:43;100059.39;;;20.04;38.24
51053;BME280;37093;37.716;-122.060;2022-07-01T05:05:11;100065.09;;;19.90;37.96
51053;BME280;37093;37.716;-122.060;2022-07-01T05:07:39;100071.98;;;19.60;38.87
51053;BME280;37093;37.716;-122.060;2022-07-01T05:10:07;100076.35;;;19.50;38.61
51053;BME280;37093;37.716;-122.060;2022-07-01T05:12:36;100080.27;;;19.66;38.46
51053;BME280;37093;37.716;-122.060;2022-07-01T05:15:07;100084.62;;;19.82;38.45
51053;BME280;37093;37.716;-122.060;2022-07-01T05:17:36;100080.84;;;19.95;38.39
51053;BME280;37093;37.716;-122.060;2022-07-01T05:20:05;100082.10;;;20.37;38.20
51053;BME280;37093;37.716;-122.060;2022-07-01T05:22:34;100081.03;;;20.00;38.09
51053;BME280;37093;37.716;-122.060;2022-07-01T05:25:03;100082.29;;;20.12;38.04
51053;BME280;37093;37.716;-122.060;2022-07-01T05:27:31;100090.47;;;19.81;38.32
51053;BME280;37093;37.716;-122.060;2022-07-01T05:29:59;100093.29;;;19.77;38.38
51053;BME280;37093;37.716;-122.060;2022-07-01T05:32:28;100092.39;;;20.00;38.18
51053;BME280;37093;37.716;-122.060;2022-07-01T05:34:57;100093.93;;;19.89;38.00
51053;BME280;37093;37.716;-122.060;2022-07-01T05:37:25;100098.26;;;19.62;38.71
51053;BME280;37093;37.716;-122.060;2022-07-01T05:39:54;100101.29;;;19.79;38.37
51053;BME280;37093;37.716;-122.060;2022-07-01T05:42:22;100101.18;;;19.77;38.17
51053;BME280;37093;37.716;-122.060;2022-07-01T05:44:50;100100.86;;;19.65;38.28
51053;BME280;37093;37.716;-122.060;2022-07-01T05:47:19;100103.84;;;19.70;38.26
51053;BME280;37093;37.716;-122.060;2022-07-01T05:49:47;100098.49;;;19.97;38.27
51053;BME280;37093;37.716;-122.060;2022-07-01T05:52:15;100098.83;;;19.76;38.35
51053;BME280;37093;37.716;-122.060;2022-07-01T05:54:44;100094.17;;;20.15;38.03
51053;BME280;37093;37.716;-122.060;2022-07-01T05:57:12;100096.19;;;19.85;37.51
51053;BME280;37093;37.716;-122.060;2022-07-01T05:59:41;100093.76;;;19.87;37.70
51053;BME280;37093;37.716;-122.060;2022-07-01T06:02:09;100094.84;;;19.95;37.83
51053;BME280;37093;37.716;-122.060;2022-07-01T06:04:38;100094.76;;;19.51;38.58
51053;BME280;37093;37.716;-122.060;2022-07-01T06:07:06;100091.28;;;19.99;38.08
51053;BME280;37093;37.716;-122.060;2022-07-01T06:09:35;100091.35;;;19.40;38.56
51053;BME280;37093;37.716;-122.060;2022-07-01T06:12:05;100087.20;;;19.56;38.25
51053;BME280;37093;37.716;-122.060;2022-07-01T06:14:33;100082.08;;;20.09;38.47
51053;BME280;37093;37.716;-122.060;2022-07-01T06:17:02;100084.00;;;19.35;38.85
51053;BME280;37093;37.716;-122.060;2022-07-01T06:19:30;100082.62;;;19.57;38.92
51053;BME280;37093;37.716;-122.060;2022-07-01T06:21:59;100081.23;;;19.53;39.31
51053;BME280;37093;37.716;-122.060;2022-07-01T06:24:29;100080.76;;;19.49;38.79
51053;BME280;37093;37.716;-122.060;2022-07-01T06:26:57;100079.98;;;19.48;39.72
51053;BME280;37093;37.716;-122.060;2022-07-01T06:29:25;100077.87;;;19.13;39.42
51053;BME280;37093;37.716;-122.060;2022-07-01T06:31:54;100075.60;;;19.40;39.95
51053;BME280;37093;37.716;-122.060;2022-07-01T06:34:22;100073.57;;;19.08;39.69
51053;BME280;37093;37.716;-122.060;2022-07-01T06:36:51;100075.88;;;18.86;40.31
51053;BME280;37093;37.716;-122.060;2022-07-01T06:39:20;100074.67;;;18.93;40.28
51053;BME280;37093;37.716;-122.060;2022-07-01T06:41:48;100074.69;;;19.18;40.05
51053;BME280;37093;37.716;-122.060;2022-07-01T06:44:16;100074.85;;;18.42;41.55
51053;BME280;37093;37.716;-122.060;2022-07-01T06:46:45;100072.83;;;18.69;40.83
51053;BME280;37093;37.716;-122.060;2022-07-01T06:49:14;100076.04;;;18.84;42.01
51053;BME280;37093;37.716;-122.060;2022-07-01T06:51:42;100071.73;;;18.77;41.13
51053;BME280;37093;37.716;-122.060;2022-07-01T06:54:11;100073.15;;;18.76;40.84
51053;BME280;37093;37.716;-122.060;2022-07-01T06:56:40;100073.65;;;18.66;41.35
51053;BME280;37093;37.716;-122.060;2022-07-01T06:59:08;100071.03;;;18.46;41.12
51053;BME280;37093;37.716;-122.060;2022-07-01T07:01:13;100072.11;;;17.71;40.84
51053;BME280;37093;37.716;-122.060;2022-07-01T07:03:42;100071.37;;;17.88;39.34
51053;BME280;37093;37.716;-122.060;2022-07-01T07:06:10;100069.28;;;19.05;38.73
51053;BME280;37093;37.716;-122.060;2022-07-01T07:08:38;100071.41;;;19.65;38.66
51053;BME280;37093;37.716;-122.060;2022-07-01T07:11:07;100071.91;;;18.60;40.79
51053;BME280;37093;37.716;-122.060;2022-07-01T07:13:36;100075.02;;;18.42;41.34
51053;BME280;37093;37.716;-122.060;2022-07-01T07:16:04;100066.48;;;18.56;41.54
51053;BME280;37093;37.716;-122.060;2022-07-01T07:18:33;100068.45;;;18.47;41.51
51053;BME280;37093;37.716;-122.060;2022-07-01T07:21:01;100065.29;;;18.57;40.52
51053;BME280;37093;37.716;-122.060;2022-07-01T07:23:30;100062.38;;;18.77;41.06
51053;BME280;37093;37.716;-122.060;2022-07-01T07:26:02;100062.69;;;18.88;40.53
51053;BME280;37093;37.716;-122.060;2022-07-01T07:28:31;100063.18;;;18.63;40.76
51053;BME280;37093;37.716;-122.060;2022-07-01T07:31:00;100057.95;;;18.43;41.40
51053;BME280;37093;37.716;-122.060;2022-07-01T07:33:28;100057.59;;;18.68;40.80
51053;BME280;37093;37.716;-122.060;2022-07-01T07:35:57;100057.01;;;18.76;40.78
51053;BME280;37093;37.716;-122.060;2022-07-01T07:38:25;100058.94;;;18.87;40.59
51053;BME280;37093;37.716;-122.060;2022-07-01T07:40:54;100054.19;;;18.89;40.56
51053;BME280;37093;37.716;-122.060;2022-07-01T07:43:23;100053.95;;;19.31;40.12
51053;BME280;37093;37.716;-122.060;2022-07-01T07:45:51;100055.56;;;19.04;40.66
51053;BME280;37093;37.716;-122.060;2022-07-01T07:48:20;100048.90;;;18.67;40.78
51053;BME280;37093;37.716;-122.060;2022-07-01T07:50:48;100047.77;;;18.89;41.08
51053;BME280;37093;37.716;-122.060;2022-07-01T07:53:17;100049.59;;;18.96;40.90
51053;BME280;37093;37.716;-122.060;2022-07-01T07:55:45;100047.42;;;18.65;41.31
51053;BME280;37093;37.716;-122.060;2022-07-01T07:58:14;100045.79;;;18.85;41.10
51053;BME280;37093;37.716;-122.060;2022-07-01T08:00:42;100044.94;;;18.74;40.87
51053;BME280;37093;37.716;-122.060;2022-07-01T08:03:11;100040.49;;;18.80;40.62
51053;BME280;37093;37.716;-122.060;2022-07-01T08:05:40;100040.45;;;18.76;40.34
51053;BME280;37093;37.716;-122.060;2022-07-01T08:08:08;100043.09;;;18.74;40.66
51053;BME280;37093;37.716;-122.060;2022-07-01T08:10:36;100045.00;;;18.44;41.41
51053;BME280;37093;37.716;-122.060;2022-07-01T08:13:05;100046.80;;;18.38;41.11
51053;BME280;37093;37.716;-122.060;2022-07-01T08:15:34;100055.79;;;18.45;41.75
51053;BME280;37093;37.716;-122.060;2022-07-01T08:18:02;100053.92;;;18.61;42.09
51053;BME280;37093;37.716;-122.060;2022-07-01T08:20:31;100054.44;;;18.50;42.10
51053;BME280;37093;37.716;-122.060;2022-07-01T08:22:59;100053.46;;;18.26;42.26
51053;BME280;37093;37.716;-122.060;2022-07-01T08:25:28;100047.51;;;18.22;42.03
51053;BME280;37093;37.716;-122.060;2022-07-01T08:27:58;100047.68;;;18.71;41.46
51053;BME280;37093;37.716;-122.060;2022-07-01T08:30:26;100051.07;;;18.56;41.49
51053;BME280;37093;37.716;-122.060;2022-07-01T08:32:54;100048.30;;;18.94;41.43
51053;BME280;37093;37.716;-122.060;2022-07-01T08:35:23;100054.01;;;18.45;41.52
51053;BME280;37093;37.716;-122.060;2022-07-01T08:37:51;100052.49;;;18.78;41.14
51053;BME280;37093;37.716;-122.060;2022-07-01T08:40:25;100049.00;;;18.09;41.42
51053;BME280;37093;37.716;-122.060;2022-07-01T08:42:56;100047.30;;;18.55;41.62
51053;BME280;37093;37.716;-122.060;2022-07-01T08:45:26;100049.84;;;18.43;41.19
51053;BME280;37093;37.716;-122.060;2022-07-01T08:47:56;100049.83;;;18.49;41.83
51053;BME280;37093;37.716;-122.060;2022-07-01T08:50:25;100048.38;;;18.70;41.53
51053;BME280;37093;37.716;-122.060;2022-07-01T08:52:54;100049.70;;;19.01;41.20
51053;BME280;37093;37.716;-122.060;2022-07-01T08:55:23;100049.54;;;18.49;41.36
51053;BME280;37093;37.716;-122.060;2022-07-01T08:57:53;100050.27;;;18.77;41.50
51053;BME280;37093;37.716;-122.060;2022-07-01T09:00:22;100046.41;;;18.68;41.85
51053;BME280;37093;37.716;-122.060;2022-07-01T09:02:58;100046.15;;;18.64;41.49
51053;BME280;37093;37.716;-122.060;2022-07-01T09:05:28;100044.04;;;18.59;41.12
51053;BME280;37093;37.716;-122.060;2022-07-01T09:07:58;100037.82;;;18.84;40.84
51053;BME280;37093;37.716;-122.060;2022-07-01T09:10:27;100039.04;;;18.65;41.46
51053;BME280;37093;37.716;-122.060;2022-07-01T09:12:57;100036.26;;;18.48;41.30
51053;BME280;37093;37.716;-122.060;2022-07-01T09:15:32;100036.71;;;18.79;41.82
51053;BME280;37093;37.716;-122.060;2022-07-01T09:18:05;100029.82;;;18.68;41.13
51053;BME280;37093;37.716;-122.060;2022-07-01T09:20:35;100032.58;;;18.70;41.51
51053;BME280;37093;37.716;-122.060;2022-07-01T09:23:05;100030.02;;;18.35;42.75
51053;BME280;37093;37.716;-122.060;2022-07-01T09:25:36;100025.20;;;18.45;42.05
51053;BME280;37093;37.716;-122.060;2022-07-01T09:28:11;100030.34;;;18.66;41.94
51053;BME280;37093;37.716;-122.060;2022-07-01T09:30:42;100026.09;;;18.59;42.12
51053;BME280;37093;37.716;-122.060;2022-07-01T09:33:12;100025.39;;;18.43;41.77
51053;BME280;37093;37.716;-122.060;2022-07-01T09:35:42;100021.46;;;18.44;41.71
51053;BME280;37093;37.716;-122.060;2022-07-01T09:38:12;100024.63;;;18.68;41.53
51053;BME280;37093;37.716;-122.060;2022-07-01T09:40:51;100021.90;;;18.65;42.08
51053;BME280;37093;37.716;-122.060;2022-07-01T09:43:22;100018.43;;;18.77;41.57
51053;BME280;37093;37.716;-122.060;2022-07-01T09:45:53;100017.07;;;18.51;41.76
51053;BME280;37093;37.716;-122.060;2022-07-01T09:48:23;100018.69;;;18.53;41.43
51053;BME280;37093;37.716;-122.060;2022-07-01T09:50:51;100017.50;;;18.97;41.32
51053;BME280;37093;37.716;-122.060;2022-07-01T09:53:21;100017.08;;;18.73;41.00
51053;BME280;37093;37.716;-122.060;2022-07-01T09:55:50;100013.89;;;18.60;41.36
51053;BME280;37093;37.716;-122.060;2022-07-01T09:58:18;100013.04;;;18.69;41.56
51053;BME280;37093;37.716;-122.060;2022-07-01T10:00:47;100017.92;;;18.59;41.93
51053;BME280;37093;37.716;-122.060;2022-07-01T10:03:18;100019.35;;;18.64;41.80
51053;BME280;37093;37.716;-122.060;2022-07-01T10:05:49;100018.65;;;18.26;41.91
51053;BME280;37093;37.716;-122.060;2022-07-01T10:08:36;100022.37;;;18.35;41.48
51053;BME280;37093;37.716;-122.060;2022-07-01T10:11:36;100021.31;;;18.00;42.12
51053;BME280;37093;37.716;-122.060;2022-07-01T10:14:09;100021.86;;;18.42;41.62
51053;BME280;37093;37.716;-122.060;2022-07-01T10:16:38;100017.92;;;18.57;41.73
51053;BME280;37093;37.716;-122.060;2022-07-01T10:19:25;100018.31;;;18.27;41.62
51053;BME280;37093;37.716;-122.060;2022-07-01T10:21:55;100017.02;;;18.67;41.70
51053;BME280;37093;37.716;-122.060;2022-07-01T10:24:25;100017.47;;;18.54;41.47
51053;BME280;37093;37.716;-122.060;2022-07-01T10:26:59;100018.89;;;18.48;41.36
51053;BME280;37093;37.716;-122.060;2022-07-01T10:29:31;100017.50;;;18.58;41.53
51053;BME280;37093;37.716;-122.060;2022-07-01T10:32:02;100018.32;;;18.42;41.60
51053;BME280;37093;37.716;-122.060;2022-07-01T10:34:39;100016.70;;;18.57;41.50
51053;BME280;37093;37.716;-122.060;2022-07-01T10:37:10;100020.66;;;18.51;41.78
51053;BME280;37093;37.716;-122.060;2022-07-01T10:39:56;100017.48;;;17.95;42.06
51053;BME280;37093;37.716;-122.060;2022-07-01T10:42:30;100016.95;;;18.47;41.89
51053;BME280;37093;37.716;-122.060;2022-07-01T10:45:08;100010.00;;;17.95;42.82
51053;BME280;37093;37.716;-122.060;2022-07-01T10:47:38;100020.02;;;18.08;42.62
51053;BME280;37093;37.716;-122.060;2022-07-01T10:50:09;100016.56;;;17.82;42.50
51053;BME280;37093;37.716;-122.060;2022-07-01T10:52:38;100010.04;;;18.62;41.78
51053;BME280;37093;37.716;-122.060;2022-07-01T10:55:08;100010.86;;;18.02;41.92
51053;BME280;37093;37.716;-122.060;2022-07-01T10:57:40;100012.22;;;18.26;41.76
51053;BME280;37093;37.716;-122.060;2022-07-01T11:01:13;100012.91;;;18.27;41.74
51053;BME280;37093;37.716;-122.060;2022-07-01T11:03:41;100014.89;;;18.40;41.35
51053;BME280;37093;37.716;-122.060;2022-07-01T11:06:10;100015.32;;;18.69;41.65
51053;BME280;37093;37.716;-122.060;2022-07-01T11:08:39;100011.66;;;18.78;41.81
51053;BME280;37093;37.716;-122.060;2022-07-01T11:11:07;100013.25;;;18.44;41.38
51053;BME280;37093;37.716;-122.060;2022-07-01T11:13:36;100011.35;;;18.79;41.36
51053;BME280;37093;37.716;-122.060;2022-07-01T11:16:05;100015.27;;;18.06;42.45
51053;BME280;37093;37.716;-122.060;2022-07-01T11:18:34;100012.35;;;18.63;41.79
51053;BME280;37093;37.716;-122.060;2022-07-01T11:21:05;100014.96;;;18.48;41.41
51053;BME280;37093;37.716;-122.060;2022-07-01T11:23:34;100012.32;;;18.77;41.15
51053;BME280;37093;37.716;-122.060;2022-07-01T11:26:02;100008.41;;;18.70;40.91
51053;BME280;37093;37.716;-122.060;2022-07-01T11:28:30;100006.57;;;19.10;40.83
51053;BME280;37093;37.716;-122.060;2022-07-01T11:31:00;100002.41;;;18.61;41.97
51053;BME280;37093;37.716;-122.060;2022-07-01T11:33:29;100000.92;;;18.79;41.65
51053;BME280;37093;37.716;-122.060;2022-07-01T11:35:59;100001.33;;;18.16;41.86
51053;BME280;37093;37.716;-122.060;2022-07-01T11:38:28;100000.87;;;18.90;40.98
51053;BME280;37093;37.716;-122.060;2022-07-01T11:40:58;99999.07;;;18.77;40.85
51053;BME280;37093;37.716;-122.060;2022-07-01T11:43:29;99995.46;;;18.77;40.52
51053;BME280;37093;37.716;-122.060;2022-07-01T11:46:00;99995.78;;;18.93;40.66
51053;BME280;37093;37.716;-122.060;2022-07-01T11:48:35;99998.42;;;18.99;40.39
51053;BME280;37093;37.716;-122.060;2022-07-01T11:51:09;99995.51;;;19.16;40.72
51053;BME280;37093;37.716;-122.060;2022-07-01T11:53:39;99996.65;;;19.22;40.26
51053;BME280;37093;37.716;-122.060;2022-07-01T11:56:07;99996.75;;;18.84;40.07
51053;BME280;37093;37.716;-122.060;2022-07-01T11:58:43;99994.02;;;19.01;40.19
51053;BME280;37093;37.716;-122.060;2022-07-01T12:01:11;99995.03;;;19.13;39.85
51053;BME280;37093;37.716;-122.060;2022-07-01T12:03:47;99998.63;;;19.09;39.91
51053;BME280;37093;37.716;-122.060;2022-07-01T12:06:17;100000.44;;;19.08;40.29
51053;BME280;37093;37.716;-122.060;2022-07-01T12:08:46;100000.11;;;18.98;40.29
51053;BME280;37093;37.716;-122.060;2022-07-01T12:11:16;99997.31;;;18.90;40.47
51053;BME280;37093;37.716;-122.060;2022-07-01T12:13:46;99996.24;;;18.96;40.08
51053;BME280;37093;37.716;-122.060;2022-07-01T12:16:15;99994.82;;;19.03;39.92
51053;BME280;37093;37.716;-122.060;2022-07-01T12:18:54;99996.71;;;18.98;40.05
51053;BME280;37093;37.716;-122.060;2022-07-01T12:21:23;99994.37;;;19.26;40.20
51053;BME280;37093;37.716;-122.060;2022-07-01T12:24:10;99994.63;;;19.01;40.13
51053;BME280;37093;37.716;-122.060;2022-07-01T12:27:02;99996.68;;;19.15;39.91
51053;BME280;37093;37.716;-122.060;2022-07-01T12:29:48;99999.09;;;19.29;40.21
51053;BME280;37093;37.716;-122.060;2022-07-01T12:32:22;100000.35;;;18.93;40.19
51053;BME280;37093;37.716;-122.060;2022-07-01T12:34:53;99999.69;;;19.29;39.91